NCAR-RAP Real-Time Weather Data

Output produced by METARs form (17 November 2017  17:46 UTC)
found at http://weather.rap.ucar.edu/surface/
 
KSYR 171654Z 27011G18KT 10SM FEW030 SCT180 BKN250 01/M07 A3019 RMK AO2 SLP224 T00111072
KSYR 171554Z 28013G19KT 10SM SCT024 BKN250 01/M06 A3020 RMK AO2 SLP227 T00061061
KSYR 171551Z 27012G19KT 10SM SCT024 BKN250 01/M06 A3020 RMK AO2
KSYR 171454Z 28014KT 10SM OVC024 M01/M06 A3021 RMK AO2 SLP232 T10061061 51016
KSYR 171354Z 31013KT 10SM OVC024 M02/M06 A3020 RMK AO2 SLP229 T10171056
KSYR 171254Z 29013KT 10SM OVC023 M01/M05 A3019 RMK AO2 SLP223 T10111050
KSYR 171154Z 33011KT 9SM OVC023 M01/M04 A3017 RMK AO2 SNE53 SLP216 P0000 60000 70010 T10061044 10017 21006 53028
KSYR 171054Z 31018G23KT 10SM -SN OVC022 01/M03 A3013 RMK AO2 SNB50 SLP205 PCPN VERY LIGHT P0000 T00061028
KSYR 170954Z 31013KT 10SM BKN025 OVC032 01/M03 A3010 RMK AO2 SLP195 BKN V OVC T00111033
KSYR 170854Z 32011KT 10SM BKN026 OVC031 01/M03 A3008 RMK AO2 SLP187 BKN V OVC 60000 T00061033 51023
KSYR 170754Z 29013G24KT 10SM OVC023 01/M03 A3007 RMK AO2 PK WND 28030/0657 SLP182 T00061028
KSYR 170654Z 29015G22KT 10SM OVC025 01/M02 A3004 RMK AO2 PK WND 29027/0610 SNE46 SLP171 P0000 T00111022
KSYR 170554Z 29014G25KT 9SM -SN OVC022 02/M02 A3001 RMK AO2 PK WND 29026/0535 SLP163 P0000 60005 T00171017 10039 20017 51022
KSYR 170454Z 29015G26KT 9SM -SN OVC023 02/M01 A2999 RMK AO2 PK WND 28026/0450 SLP156 P0000 T00221011 400940017
KSYR 170354Z 29012G18KT 10SM -SN BKN025 OVC040 02/00 A2997 RMK AO2 SNB50 SLP147 P0000 T00170000
KSYR 170254Z 29013G23KT 10SM SCT017 BKN024 OVC045 02/00 A2995 RMK AO2 PK WND 30030/0210 RAE45SNB13E22 SLP140 P0001 60005 T00220000 53027
KSYR 170154Z 29014KT 7SM -RA BKN017 BKN025 OVC031 02/01 A2992 RMK AO2 PK WND 30034/0137 RAB0056 SLP130 P0002 T00220011
KSYR 170054Z 28007KT 10SM BKN020 OVC026 03/02 A2989 RMK AO2 PK WND 29029/0020 RAE53 SLP120 P0002 T00330022
KSYR 162354Z 28011KT 10SM -RA BKN020 OVC028 04/02 A2986 RMK AO2 PK WND 27026/2256 SLP112 P0001 60004 T00390022 10083 20033 51029
KSYR 162254Z 28012G16KT 6SM RA BR BKN018 OVC031 04/03 A2985 RMK AO2 PK WND 26032/2217 RAE2156B13 SLP108 P0003 T00390028
KSYR 162234Z 29012G23KT 10SM -RA BKN019 OVC027 04/02 A2984 RMK AO2 PK WND 26032/2217 RAE2156B13 P0000 T00440022
KSYR 162154Z 26018G26KT 10SM -RA BKN025 OVC033 05/03 A2981 RMK AO2 PK WND 25029/2143 RAB2059 SLP092 P0000 T00500028
KSYR 162112Z 25019G23KT 10SM -RA BKN028 BKN042 OVC075 06/02 A2978 RMK AO2 RAB2059 P0000 T00560022
KSYR 162054Z 24012KT 10SM BKN033 OVC041 06/02 A2978 RMK AO2 RAB01E40 SLP081 P0000 60000 T00610022 53015
KSYR 161954Z 25018G23KT 10SM OVC033 07/02 A2976 RMK AO2 PK WND 26027/1926 SLP075 T00720017
KSYR 161854Z 24021G27KT 10SM SCT033 SCT046 OVC060 08/02 A2974 RMK AO2 PK WND 24027/1852 CIG 033 NW SLP068 T00780022
KSYR 161754Z 24012KT 10SM BKN040 BKN070 OVC080 08/04 A2973 RMK AO2 RAE1657 SLP066 P0000 60001 T00780039 10094 20061 58003
KSYR 161654Z 24009KT 10SM -RA BKN030 BKN035 OVC042 08/06 A2973 RMK AO2 RAE32B49 SLP065 P0001 T00780061
KSYR 161554Z 25015KT 4SM -RA BR BKN036 OVC049 07/05 A2975 RMK AO2 RAB19 SLP074 P0000 T00670050
KSYR 161454Z 22013KT 10SM BKN036 BKN049 BKN080 09/03 A2974 RMK AO2 SLP070 60000 T00890028 50003
KSYR 161354Z 22011KT 10SM BKN036 BKN060 09/04 A2975 RMK AO2 RAB05E15 SLP072 P0000 T00890039
KSYR 161254Z 21010KT 10SM BKN036 BKN090 08/04 A2974 RMK AO2 SLP070 T00830039
KSYR 161154Z 21015G20KT 10SM BKN038 OVC090 08/04 A2973 RMK AO2 RAB1059E27 SLP067 P0000 60000 T00830039 10083 20072 51002
KSYR 161054Z 19012KT 10SM FEW031 SCT042 BKN075 08/03 A2973 RMK AO2 SLP067 T00830033
KSYR 160954Z 19011KT 10SM FEW039 SCT080 08/03 A2973 RMK AO2 PK WND 16026/0901 SLP068 T00780033
KSYR 160854Z 17015G27KT 10SM BKN047 BKN090 08/03 A2973 RMK AO2 PK WND 18029/0840 RAE51 SLP064 P0000 60000 T00780033 57024
KSYR 160754Z 18018G24KT 10SM -RA BKN049 OVC080 08/03 A2975 RMK AO2 PK WND 19028/0729 SLP074 PCPN VERY LIGHT BKN V OVC P0000 T00780028
KSYR 160654Z 17019G27KT 10SM -RA OVC048 08/02 A2977 RMK AO2 PK WND 18030/0628 SLP079 P0000 T00780022
KSYR 160554Z 17013G21KT 10SM -RA BKN050 OVC065 08/01 A2980 RMK AO2 SLP089 P0000 60000 T00780011 10078 20044 58031
KSYR 160454Z 15017G23KT 10SM -RA BKN065 OVC090 07/02 A2982 RMK AO2 RAB45 SLP097 P0000 T00720017 400781033
KSYR 160354Z 18011KT 10SM OVC100 07/01 A2987 RMK AO2 SLP113 T00720006
KSYR 160254Z VRB04KT 10SM OVC120 07/00 A2989 RMK AO2 SLP121 T00670000 58020
KSYR 160154Z 14012G20KT 10SM BKN110 OVC140 07/M01 A2991 RMK AO2 SLP129 T00671011
KSYR 160054Z 12006KT 10SM BKN100 OVC140 06/M02 A2994 RMK AO2 SLP140 T00561017
KSYR 152354Z 09009KT 10SM SCT130 OVC180 04/M02 A2995 RMK AO2 SLP143 T00441017 10078 20039 58024
KSYR 152254Z 09010KT 10SM OVC200 04/M02 A2998 RMK AO2 SLP153 T00441017
KSYR 152154Z 12010KT 10SM FEW150 OVC200 05/M02 A3000 RMK AO2 SLP159 T00501022
KSYR 152054Z 13010KT 10SM FEW150 OVC200 06/M02 A3002 RMK AO2 SLP166 T00611022 58026
KSYR 151954Z 14013KT 10SM FEW150 OVC200 07/M03 A3005 RMK AO2 SLP177 T00671028
KSYR 151854Z 14010KT 10SM OVC200 08/M03 A3008 RMK AO2 SLP185 T00781028
KSYR 151754Z 14012KT 10SM SCT180 BKN250 07/M02 A3010 RMK AO2 SLP193 T00721017 10078 21033 58044
KSYR 151654Z 14011G14KT 10SM SCT180 BKN250 07/M02 A3014 RMK AO2 SLP207 T00721017
KSYR 151554Z 08006KT 10SM FEW025 SCT180 BKN250 04/01 A3020 RMK AO2 SLP226 T00440006
KSYR 151454Z 08005KT 10SM FEW025 SCT180 BKN250 03/01 A3023 RMK AO2 SLP238 T00280006 58014
KSYR 151354Z 09005KT 8SM FEW025 SCT180 BKN250 00/M01 A3025 RMK AO2 SLP243 T00001006
KSYR 151254Z 09005KT 7SM BCFG FEW025 SCT180 BKN250 M02/M02 A3027 RMK AO2 SLP252 VIS SE 1 1/2 T10221022
KSYR 151154Z 11005KT 6SM BR FEW040 FEW200 SCT250 M03/M04 A3027 RMK AO2 SLP253 T10331039 11017 21033 58004
KSYR 151054Z 10004KT 6SM BR CLR M03/M03 A3028 RMK AO2 SLP256 T10281028
KSYR 150954Z 13004KT 8SM BCFG FEW045 M02/M03 A3028 RMK AO2 SLP256 T10221028
KSYR 150854Z 11004KT 8SM BCFG FEW046 M02/M02 A3029 RMK AO2 SLP256 T10171022 58005
KSYR 150754Z 13003KT 7SM BCFG FEW048 M02/M02 A3029 RMK AO2 SLP259 T10171022
KSYR 150654Z 12003KT 7SM BCFG FEW050 M02/M03 A3030 RMK AO2 SLP260 T10221028
KSYR 150554Z 00000KT 5SM BR FEW050 M02/M02 A3030 RMK AO2 SLP262 T10171022 10028 21017 53000
KSYR 150454Z 10003KT 8SM SCT055 M01/M02 A3030 RMK AO2 SLP260 T10111017 400501017
KSYR 150354Z 00000KT 8SM BKN060 00/M01 A3030 RMK AO2 SLP260 T00001006
KSYR 150254Z 00000KT 10SM BKN060 01/00 A3030 RMK AO2 SLP262 T00110000 56006
KSYR 150154Z 00000KT 10SM OVC060 02/01 A3031 RMK AO2 SLP265 T00220006
KSYR 150054Z 00000KT 10SM OVC060 03/01 A3031 RMK AO2 SLP264 T00280006
KSYR 142354Z 26004KT 10SM OVC060 03/01 A3032 RMK AO2 SLP268 T00280006 10050 20028 50001
KSYR 142254Z 27005KT 10SM OVC060 03/01 A3033 RMK AO2 SLP271 T00330006
KSYR 142154Z 28006KT 10SM OVC060 04/01 A3032 RMK AO2 SLP270 T00390006
KSYR 142054Z 25006KT 10SM FEW040 OVC060 04/00 A3032 RMK AO2 SLP267 T00390000 55003
KSYR 141954Z 27006KT 10SM FEW040 OVC060 04/M01 A3031 RMK AO2 SLP265 T00441006
KSYR 141854Z 24006KT 10SM OVC065 04/M01 A3031 RMK AO2 SLP265 T00441006
KSYR 141754Z 28005KT 10SM OVC065 04/M02 A3033 RMK AO2 SLP269 T00441017 10044 20017 58015
KSYR 141654Z 30005KT 10SM OVC060 04/M02 A3034 RMK AO2 SLP276 T00391017
KSYR 141554Z 29005KT 10SM FEW046 OVC060 03/M03 A3037 RMK AO2 SLP284 T00331033
KSYR 141454Z 30006KT 10SM SCT040 OVC060 03/M02 A3037 RMK AO2 SLP285 T00281017 51006
KSYR 141354Z 27006KT 10SM OVC060 03/00 A3037 RMK AO2 SLP285 T00280000
KSYR 141254Z 29004KT 10SM FEW034 OVC055 02/00 A3036 RMK AO2 SLP283 T00220000 $
KSYR 141154Z 29003KT 10SM SCT050 OVC060 02/00 A3035 RMK AO2 SLP279 70001 T00170000 10028 20017 51005 $
KSYR 141054Z 28004KT 10SM BKN035 OVC060 02/M01 A3035 RMK AO2 SLP278 T00221006 $
KSYR 140954Z 30004KT 10SM SCT027 BKN034 OVC060 02/01 A3035 RMK AO2 SLP277 T00220006
KSYR 140917Z 29004KT 10SM FEW026 OVC031 03/01 A3034 RMK AO2 T00280006
KSYR 140854Z 30004KT 10SM OVC026 02/01 A3034 RMK AO2 SLP274 T00220006 56002
KSYR 140754Z 27003KT 9SM FEW014 OVC024 03/02 A3034 RMK AO2 SLP276 T00280017
KSYR 140726Z 26004KT 9SM SCT014 OVC024 03/02 A3035 RMK AO2 T00280017
KSYR 140654Z 00000KT 10SM BKN014 OVC022 03/01 A3034 RMK AO2 SLP272 T00280011
KSYR 140554Z 34003KT 9SM OVC013 03/02 A3034 RMK AO2 SLP276 60000 T00280017 10028 20022 56002
KSYR 140454Z 00000KT 8SM OVC012 03/02 A3035 RMK AO2 SLP278 T00280022 400501006
KSYR 140354Z 00000KT 8SM OVC012 03/02 A3034 RMK AO2 SLP276 T00280017
KSYR 140254Z 00000KT 6SM BR OVC011 03/02 A3035 RMK AO2 RAE10 SLP278 P0000 60000 T00280022 58004
KSYR 140154Z 00000KT 6SM -RA BR OVC011 03/02 A3036 RMK AO2 RAB46 SLP281 P0000 T00280022
KSYR 140054Z 23003KT 7SM OVC011 03/02 A3036 RMK AO2 SLP282 T00280022
KSYR 132354Z 00000KT 4SM BR OVC010 03/03 A3036 RMK AO2 SLP282 T00280028 10050 20028 53006
KSYR 132347Z 35003KT 3SM BR BKN008 OVC012 03/02 A3036 RMK AO2 T00280022
KSYR 132254Z 36003KT 10SM OVC015 03/01 A3036 RMK AO2 SLP280 T00330011
KSYR 132154Z 01003KT 10SM OVC020 03/01 A3034 RMK AO2 SLP276 T00330011
KSYR 132054Z 34004KT 10SM OVC020 03/01 A3034 RMK AO2 SLP276 T00330011 53006
KSYR 131954Z 36005KT 10SM FEW014 OVC020 04/01 A3033 RMK AO2 SLP272 T00390011
KSYR 131854Z VRB03KT 10SM BKN018 OVC030 04/01 A3032 RMK AO2 SLP269 T00440011
KSYR 131813Z 00000KT 10SM BKN014 BKN028 OVC040 04/02 A3033 RMK AO2 T00440017
KSYR 131754Z 10003KT 10SM SCT013 BKN028 OVC040 04/02 A3033 RMK AO2 SLP270 60001 T00390017 10039 21006 58013
KSYR 131713Z 05003KT 10SM BKN012 OVC030 04/02 A3034 RMK AO2 T00390017 $
KSYR 131654Z 00000KT 10SM BKN009 OVC035 03/02 A3034 RMK AO2 SLP275 T00330017 $
KSYR 131635Z 07003KT 10SM BKN008 OVC035 03/02 A3034 RMK AO2 T00330022 $
KSYR 131554Z 08005KT 8SM FEW005 BKN035 OVC045 03/02 A3036 RMK AO2 RAB29E49SNE43 SLP280 P0000 T00280017 $
KSYR 131454Z 07005KT 3SM -SN BR FEW004 OVC040 01/01 A3036 RMK AO2 SLP283 P0000 60001 T00060006 51006
KSYR 131354Z 08005KT 3SM -SN BR FEW004 OVC040 00/00 A3036 RMK AO2 SLP282 P0000 T00000000